sensor_id;sensor_type;location;lat;lon;timestamp;P1;durP1;ratioP1;P2;durP2;ratioP2
12910;SDS011;6523;49.758;6.120;2022-12-24T00:02:07;11.60;;;3.33;;
12910;SDS011;6523;49.758;6.120;2022-12-24T00:04:32;10.60;;;2.87;;
12910;SDS011;6523;49.758;6.120;2022-12-24T00:06:58;11.50;;;3.30;;
12910;SDS011;6523;49.758;6.120;2022-12-24T00:09:23;10.77;;;2.70;;
12910;SDS011;6523;49.758;6.120;2022-12-24T00:11:49;10.07;;;2.90;;
12910;SDS011;6523;49.758;6.120;2022-12-24T00:14:14;12.67;;;2.87;;
12910;SDS011;6523;49.758;6.120;2022-12-24T00:16:40;8.67;;;2.53;;
12910;SDS011;6523;49.758;6.120;2022-12-24T00:19:05;15.87;;;3.53;;
12910;SDS011;6523;49.758;6.120;2022-12-24T00:21:31;13.90;;;3.27;;
12910;SDS011;6523;49.758;6.120;2022-12-24T00:23:56;10.53;;;2.93;;
12910;SDS011;6523;49.758;6.120;2022-12-24T00:26:22;10.30;;;3.50;;
12910;SDS011;6523;49.758;6.120;2022-12-24T00:28:47;10.30;;;2.50;;
12910;SDS011;6523;49.758;6.120;2022-12-24T00:31:14;14.80;;;3.70;;
12910;SDS011;6523;49.758;6.120;2022-12-24T00:33:41;10.13;;;2.70;;
12910;SDS011;6523;49.758;6.120;2022-12-24T00:36:07;14.00;;;3.10;;
12910;SDS011;6523;49.758;6.120;2022-12-24T00:38:33;12.40;;;3.10;;
12910;SDS011;6523;49.758;6.120;2022-12-24T00:40:59;12.07;;;2.53;;
12910;SDS011;6523;49.758;6.120;2022-12-24T00:43:26;10.17;;;3.23;;
12910;SDS011;6523;49.758;6.120;2022-12-24T00:45:52;11.83;;;2.37;;
12910;SDS011;6523;49.758;6.120;2022-12-24T00:48:18;14.03;;;3.20;;
12910;SDS011;6523;49.758;6.120;2022-12-24T00:50:43;11.47;;;3.03;;
12910;SDS011;6523;49.758;6.120;2022-12-24T00:53:09;10.37;;;2.80;;
12910;SDS011;6523;49.758;6.120;2022-12-24T00:55:35;12.30;;;3.40;;
12910;SDS011;6523;49.758;6.120;2022-12-24T00:58:00;10.57;;;2.70;;
12910;SDS011;6523;49.758;6.120;2022-12-24T01:00:26;12.50;;;2.77;;
12910;SDS011;6523;49.758;6.120;2022-12-24T01:02:51;15.43;;;2.97;;
12910;SDS011;6523;49.758;6.120;2022-12-24T01:05:17;12.83;;;2.70;;
12910;SDS011;6523;49.758;6.120;2022-12-24T01:07:45;9.67;;;2.80;;
12910;SDS011;6523;49.758;6.120;2022-12-24T01:10:12;8.47;;;2.80;;
12910;SDS011;6523;49.758;6.120;2022-12-24T01:12:39;11.20;;;2.70;;
12910;SDS011;6523;49.758;6.120;2022-12-24T01:15:05;10.63;;;2.73;;
12910;SDS011;6523;49.758;6.120;2022-12-24T01:17:32;13.40;;;2.93;;
12910;SDS011;6523;49.758;6.120;2022-12-24T01:19:58;11.70;;;3.13;;
12910;SDS011;6523;49.758;6.120;2022-12-24T01:22:23;13.33;;;3.30;;
12910;SDS011;6523;49.758;6.120;2022-12-24T01:24:49;15.47;;;3.10;;
12910;SDS011;6523;49.758;6.120;2022-12-24T01:27:15;9.87;;;2.83;;
12910;SDS011;6523;49.758;6.120;2022-12-24T01:29:40;16.77;;;3.60;;
12910;SDS011;6523;49.758;6.120;2022-12-24T01:32:06;14.23;;;2.87;;
12910;SDS011;6523;49.758;6.120;2022-12-24T01:34:31;10.63;;;2.67;;
12910;SDS011;6523;49.758;6.120;2022-12-24T01:36:57;11.27;;;3.37;;
12910;SDS011;6523;49.758;6.120;2022-12-24T01:39:23;17.07;;;3.07;;
12910;SDS011;6523;49.758;6.120;2022-12-24T01:41:48;9.87;;;2.80;;
12910;SDS011;6523;49.758;6.120;2022-12-24T01:44:34;12.90;;;3.67;;
12910;SDS011;6523;49.758;6.120;2022-12-24T01:47:13;10.83;;;2.77;;
12910;SDS011;6523;49.758;6.120;2022-12-24T01:49:47;8.97;;;2.77;;
12910;SDS011;6523;49.758;6.120;2022-12-24T01:52:20;10.73;;;2.73;;
12910;SDS011;6523;49.758;6.120;2022-12-24T01:54:52;11.80;;;2.70;;
12910;SDS011;6523;49.758;6.120;2022-12-24T01:57:30;10.97;;;2.90;;
12910;SDS011;6523;49.758;6.120;2022-12-24T02:00:01;12.50;;;3.10;;
12910;SDS011;6523;49.758;6.120;2022-12-24T02:02:34;13.77;;;3.47;;
12910;SDS011;6523;49.758;6.120;2022-12-24T02:05:05;9.40;;;2.90;;
12910;SDS011;6523;49.758;6.120;2022-12-24T02:07:35;8.40;;;2.80;;
12910;SDS011;6523;49.758;6.120;2022-12-24T02:10:02;11.63;;;2.53;;
12910;SDS011;6523;49.758;6.120;2022-12-24T02:12:29;10.93;;;2.93;;
12910;SDS011;6523;49.758;6.120;2022-12-24T02:14:58;12.53;;;3.90;;
12910;SDS011;6523;49.758;6.120;2022-12-24T02:22:40;11.30;;;3.00;;
12910;SDS011;6523;49.758;6.120;2022-12-24T02:28:51;16.70;;;3.67;;
12910;SDS011;6523;49.758;6.120;2022-12-24T02:32:04;11.07;;;3.10;;
12910;SDS011;6523;49.758;6.120;2022-12-24T02:34:46;15.47;;;3.73;;
12910;SDS011;6523;49.758;6.120;2022-12-24T02:37:20;15.17;;;3.30;;
12910;SDS011;6523;49.758;6.120;2022-12-24T02:42:37;13.33;;;3.57;;
12910;SDS011;6523;49.758;6.120;2022-12-24T02:45:09;11.03;;;3.40;;
12910;SDS011;6523;49.758;6.120;2022-12-24T02:47:38;10.87;;;3.37;;
12910;SDS011;6523;49.758;6.120;2022-12-24T02:50:06;10.23;;;3.50;;
12910;SDS011;6523;49.758;6.120;2022-12-24T02:52:34;13.23;;;3.60;;
12910;SDS011;6523;49.758;6.120;2022-12-24T02:55:02;14.77;;;4.40;;
12910;SDS011;6523;49.758;6.120;2022-12-24T03:00:06;13.77;;;3.73;;
12910;SDS011;6523;49.758;6.120;2022-12-24T03:02:40;13.57;;;4.23;;
12910;SDS011;6523;49.758;6.120;2022-12-24T03:05:24;17.30;;;3.23;;
12910;SDS011;6523;49.758;6.120;2022-12-24T03:08:04;14.93;;;3.83;;
12910;SDS011;6523;49.758;6.120;2022-12-24T03:13:09;13.97;;;3.47;;
12910;SDS011;6523;49.758;6.120;2022-12-24T03:15:39;19.03;;;4.10;;
12910;SDS011;6523;49.758;6.120;2022-12-24T03:18:06;16.77;;;4.40;;
12910;SDS011;6523;49.758;6.120;2022-12-24T03:20:38;12.67;;;3.67;;
12910;SDS011;6523;49.758;6.120;2022-12-24T03:23:05;16.67;;;4.20;;
12910;SDS011;6523;49.758;6.120;2022-12-24T03:25:32;12.97;;;3.70;;
12910;SDS011;6523;49.758;6.120;2022-12-24T03:27:59;16.97;;;3.90;;
12910;SDS011;6523;49.758;6.120;2022-12-24T03:30:28;18.17;;;3.83;;
12910;SDS011;6523;49.758;6.120;2022-12-24T03:32:54;22.37;;;4.70;;
12910;SDS011;6523;49.758;6.120;2022-12-24T03:35:20;18.27;;;4.27;;
12910;SDS011;6523;49.758;6.120;2022-12-24T03:37:45;15.17;;;4.07;;
12910;SDS011;6523;49.758;6.120;2022-12-24T03:40:11;16.00;;;4.17;;
12910;SDS011;6523;49.758;6.120;2022-12-24T03:42:37;18.53;;;4.37;;
12910;SDS011;6523;49.758;6.120;2022-12-24T03:45:02;17.10;;;3.63;;
12910;SDS011;6523;49.758;6.120;2022-12-24T03:47:29;22.60;;;4.43;;
12910;SDS011;6523;49.758;6.120;2022-12-24T03:49:55;18.60;;;3.77;;
12910;SDS011;6523;49.758;6.120;2022-12-24T03:52:20;15.53;;;3.70;;
12910;SDS011;6523;49.758;6.120;2022-12-24T03:54:46;14.60;;;3.87;;
12910;SDS011;6523;49.758;6.120;2022-12-24T03:57:12;16.37;;;4.27;;
12910;SDS011;6523;49.758;6.120;2022-12-24T03:59:37;21.13;;;5.03;;
12910;SDS011;6523;49.758;6.120;2022-12-24T04:02:03;14.30;;;4.23;;
12910;SDS011;6523;49.758;6.120;2022-12-24T04:04:28;21.67;;;6.03;;
12910;SDS011;6523;49.758;6.120;2022-12-24T04:06:54;15.93;;;3.90;;
12910;SDS011;6523;49.758;6.120;2022-12-24T04:09:20;24.13;;;4.53;;
12910;SDS011;6523;49.758;6.120;2022-12-24T04:11:45;23.27;;;4.47;;
12910;SDS011;6523;49.758;6.120;2022-12-24T04:14:11;21.20;;;3.97;;
12910;SDS011;6523;49.758;6.120;2022-12-24T04:16:36;15.37;;;3.80;;
12910;SDS011;6523;49.758;6.120;2022-12-24T04:19:02;16.20;;;3.87;;
12910;SDS011;6523;49.758;6.120;2022-12-24T04:21:27;19.03;;;4.10;;
12910;SDS011;6523;49.758;6.120;2022-12-24T04:23:53;16.27;;;3.80;;
12910;SDS011;6523;49.758;6.120;2022-12-24T04:26:18;16.20;;;4.30;;
12910;SDS011;6523;49.758;6.120;2022-12-24T04:28:44;19.43;;;4.70;;
12910;SDS011;6523;49.758;6.120;2022-12-24T04:31:13;15.33;;;4.10;;
12910;SDS011;6523;49.758;6.120;2022-12-24T04:33:40;19.57;;;4.23;;
12910;SDS011;6523;49.758;6.120;2022-12-24T04:36:06;16.50;;;4.50;;
12910;SDS011;6523;49.758;6.120;2022-12-24T04:38:33;11.20;;;3.43;;
12910;SDS011;6523;49.758;6.120;2022-12-24T04:43:29;16.07;;;4.57;;
12910;SDS011;6523;49.758;6.120;2022-12-24T04:45:55;11.27;;;3.77;;
12910;SDS011;6523;49.758;6.120;2022-12-24T04:48:21;20.77;;;4.20;;
12910;SDS011;6523;49.758;6.120;2022-12-24T04:50:47;19.53;;;4.40;;
12910;SDS011;6523;49.758;6.120;2022-12-24T04:53:12;29.67;;;5.60;;
12910;SDS011;6523;49.758;6.120;2022-12-24T04:55:42;13.90;;;3.80;;
12910;SDS011;6523;49.758;6.120;2022-12-24T04:58:09;23.40;;;5.37;;
12910;SDS011;6523;49.758;6.120;2022-12-24T05:00:34;16.73;;;3.83;;
12910;SDS011;6523;49.758;6.120;2022-12-24T05:03:00;18.87;;;4.67;;
12910;SDS011;6523;49.758;6.120;2022-12-24T05:05:26;22.43;;;4.07;;
12910;SDS011;6523;49.758;6.120;2022-12-24T05:07:51;18.63;;;4.30;;
12910;SDS011;6523;49.758;6.120;2022-12-24T05:10:17;15.10;;;3.80;;
12910;SDS011;6523;49.758;6.120;2022-12-24T05:12:43;19.80;;;5.07;;
12910;SDS011;6523;49.758;6.120;2022-12-24T05:15:09;18.23;;;4.20;;
12910;SDS011;6523;49.758;6.120;2022-12-24T05:17:35;20.67;;;4.40;;
12910;SDS011;6523;49.758;6.120;2022-12-24T05:20:00;20.43;;;4.50;;
12910;SDS011;6523;49.758;6.120;2022-12-24T05:22:26;21.23;;;4.50;;
12910;SDS011;6523;49.758;6.120;2022-12-24T05:25:10;24.40;;;4.80;;
12910;SDS011;6523;49.758;6.120;2022-12-24T05:27:54;15.87;;;3.87;;
12910;SDS011;6523;49.758;6.120;2022-12-24T05:30:20;24.07;;;4.37;;
12910;SDS011;6523;49.758;6.120;2022-12-24T05:32:45;18.33;;;4.77;;
12910;SDS011;6523;49.758;6.120;2022-12-24T05:35:11;19.93;;;4.00;;
12910;SDS011;6523;49.758;6.120;2022-12-24T05:37:37;20.83;;;4.33;;
12910;SDS011;6523;49.758;6.120;2022-12-24T05:40:03;20.93;;;5.17;;
12910;SDS011;6523;49.758;6.120;2022-12-24T05:42:29;18.87;;;4.57;;
12910;SDS011;6523;49.758;6.120;2022-12-24T05:44:55;17.43;;;4.87;;
12910;SDS011;6523;49.758;6.120;2022-12-24T05:47:20;31.33;;;5.27;;
12910;SDS011;6523;49.758;6.120;2022-12-24T05:49:46;22.37;;;4.57;;
12910;SDS011;6523;49.758;6.120;2022-12-24T05:52:11;14.67;;;4.20;;
12910;SDS011;6523;49.758;6.120;2022-12-24T05:54:37;19.13;;;4.87;;
12910;SDS011;6523;49.758;6.120;2022-12-24T05:57:03;17.37;;;4.40;;
12910;SDS011;6523;49.758;6.120;2022-12-24T05:59:28;23.63;;;4.63;;
12910;SDS011;6523;49.758;6.120;2022-12-24T06:01:54;24.67;;;4.53;;
12910;SDS011;6523;49.758;6.120;2022-12-24T06:04:19;17.20;;;4.07;;
12910;SDS011;6523;49.758;6.120;2022-12-24T06:06:45;16.20;;;4.33;;
12910;SDS011;6523;49.758;6.120;2022-12-24T06:09:10;20.97;;;4.37;;
12910;SDS011;6523;49.758;6.120;2022-12-24T06:11:36;26.67;;;5.37;;
12910;SDS011;6523;49.758;6.120;2022-12-24T06:14:01;22.40;;;4.40;;
12910;SDS011;6523;49.758;6.120;2022-12-24T06:16:27;22.27;;;4.87;;
12910;SDS011;6523;49.758;6.120;2022-12-24T06:18:53;21.17;;;3.80;;
12910;SDS011;6523;49.758;6.120;2022-12-24T06:21:18;24.00;;;4.80;;
12910;SDS011;6523;49.758;6.120;2022-12-24T06:23:44;20.33;;;4.53;;
12910;SDS011;6523;49.758;6.120;2022-12-24T06:26:12;24.60;;;6.00;;
12910;SDS011;6523;49.758;6.120;2022-12-24T06:28:39;25.10;;;5.03;;
12910;SDS011;6523;49.758;6.120;2022-12-24T06:31:05;22.37;;;4.47;;
12910;SDS011;6523;49.758;6.120;2022-12-24T06:33:34;18.63;;;4.83;;
12910;SDS011;6523;49.758;6.120;2022-12-24T06:36:00;21.80;;;3.90;;
12910;SDS011;6523;49.758;6.120;2022-12-24T06:38:26;16.77;;;5.07;;
12910;SDS011;6523;49.758;6.120;2022-12-24T06:40:53;15.53;;;4.17;;
12910;SDS011;6523;49.758;6.120;2022-12-24T06:43:19;20.40;;;4.37;;
12910;SDS011;6523;49.758;6.120;2022-12-24T06:45:46;22.07;;;4.60;;
12910;SDS011;6523;49.758;6.120;2022-12-24T06:48:12;18.80;;;4.57;;
12910;SDS011;6523;49.758;6.120;2022-12-24T06:50:39;21.07;;;4.90;;
12910;SDS011;6523;49.758;6.120;2022-12-24T06:53:05;25.07;;;4.70;;
12910;SDS011;6523;49.758;6.120;2022-12-24T06:55:31;20.60;;;4.53;;
12910;SDS011;6523;49.758;6.120;2022-12-24T06:57:56;27.77;;;4.90;;
12910;SDS011;6523;49.758;6.120;2022-12-24T07:00:22;18.60;;;3.87;;
12910;SDS011;6523;49.758;6.120;2022-12-24T07:02:48;21.50;;;4.70;;
12910;SDS011;6523;49.758;6.120;2022-12-24T07:05:13;23.67;;;4.70;;
12910;SDS011;6523;49.758;6.120;2022-12-24T07:07:40;22.73;;;4.50;;
12910;SDS011;6523;49.758;6.120;2022-12-24T07:10:08;21.37;;;4.70;;
12910;SDS011;6523;49.758;6.120;2022-12-24T07:12:36;19.77;;;4.63;;
12910;SDS011;6523;49.758;6.120;2022-12-24T07:15:02;23.40;;;4.47;;
12910;SDS011;6523;49.758;6.120;2022-12-24T07:17:28;21.87;;;6.43;;
12910;SDS011;6523;49.758;6.120;2022-12-24T07:19:53;25.67;;;4.77;;
12910;SDS011;6523;49.758;6.120;2022-12-24T07:22:19;21.93;;;4.77;;
12910;SDS011;6523;49.758;6.120;2022-12-24T07:24:45;25.53;;;5.37;;
12910;SDS011;6523;49.758;6.120;2022-12-24T07:27:10;24.40;;;5.87;;
12910;SDS011;6523;49.758;6.120;2022-12-24T07:29:36;22.73;;;4.97;;
12910;SDS011;6523;49.758;6.120;2022-12-24T07:32:02;25.20;;;4.23;;
12910;SDS011;6523;49.758;6.120;2022-12-24T07:34:28;20.20;;;4.53;;
12910;SDS011;6523;49.758;6.120;2022-12-24T07:36:53;25.33;;;5.30;;
12910;SDS011;6523;49.758;6.120;2022-12-24T07:39:19;20.60;;;5.50;;
12910;SDS011;6523;49.758;6.120;2022-12-24T07:41:45;20.37;;;4.73;;
12910;SDS011;6523;49.758;6.120;2022-12-24T07:44:11;19.93;;;4.27;;
12910;SDS011;6523;49.758;6.120;2022-12-24T07:46:37;18.43;;;4.40;;
12910;SDS011;6523;49.758;6.120;2022-12-24T07:49:03;18.60;;;4.07;;
12910;SDS011;6523;49.758;6.120;2022-12-24T07:51:29;22.03;;;4.73;;
12910;SDS011;6523;49.758;6.120;2022-12-24T07:53:54;23.83;;;5.20;;
12910;SDS011;6523;49.758;6.120;2022-12-24T07:56:20;24.50;;;4.37;;
12910;SDS011;6523;49.758;6.120;2022-12-24T07:58:45;29.10;;;5.00;;
12910;SDS011;6523;49.758;6.120;2022-12-24T08:01:11;18.87;;;5.33;;
12910;SDS011;6523;49.758;6.120;2022-12-24T08:03:37;20.10;;;4.83;;
12910;SDS011;6523;49.758;6.120;2022-12-24T08:06:03;18.50;;;5.37;;
12910;SDS011;6523;49.758;6.120;2022-12-24T08:08:28;23.73;;;4.97;;
12910;SDS011;6523;49.758;6.120;2022-12-24T08:10:58;29.40;;;5.23;;
12910;SDS011;6523;49.758;6.120;2022-12-24T08:13:26;18.13;;;5.10;;
12910;SDS011;6523;49.758;6.120;2022-12-24T08:15:52;27.10;;;4.80;;
12910;SDS011;6523;49.758;6.120;2022-12-24T08:18:18;18.80;;;4.87;;
12910;SDS011;6523;49.758;6.120;2022-12-24T08:20:43;17.43;;;4.80;;
12910;SDS011;6523;49.758;6.120;2022-12-24T08:23:09;24.43;;;5.10;;
12910;SDS011;6523;49.758;6.120;2022-12-24T08:25:35;18.70;;;4.37;;
12910;SDS011;6523;49.758;6.120;2022-12-24T08:28:01;22.20;;;5.37;;
12910;SDS011;6523;49.758;6.120;2022-12-24T08:30:26;25.90;;;4.43;;
12910;SDS011;6523;49.758;6.120;2022-12-24T08:32:52;23.63;;;5.30;;
12910;SDS011;6523;49.758;6.120;2022-12-24T08:35:18;20.33;;;5.00;;
12910;SDS011;6523;49.758;6.120;2022-12-24T08:37:44;22.20;;;5.00;;
12910;SDS011;6523;49.758;6.120;2022-12-24T08:40:10;18.60;;;4.70;;
12910;SDS011;6523;49.758;6.120;2022-12-24T08:42:36;18.73;;;5.17;;
12910;SDS011;6523;49.758;6.120;2022-12-24T08:45:02;23.43;;;5.23;;
12910;SDS011;6523;49.758;6.120;2022-12-24T08:47:28;24.53;;;5.30;;
12910;SDS011;6523;49.758;6.120;2022-12-24T08:49:53;21.60;;;5.17;;
12910;SDS011;6523;49.758;6.120;2022-12-24T08:52:19;19.03;;;4.87;;
12910;SDS011;6523;49.758;6.120;2022-12-24T08:54:44;27.60;;;5.53;;
12910;SDS011;6523;49.758;6.120;2022-12-24T08:57:10;28.47;;;5.53;;
12910;SDS011;6523;49.758;6.120;2022-12-24T08:59:36;22.17;;;4.70;;
12910;SDS011;6523;49.758;6.120;2022-12-24T09:02:02;20.87;;;4.90;;
12910;SDS011;6523;49.758;6.120;2022-12-24T09:04:28;19.93;;;5.13;;
12910;SDS011;6523;49.758;6.120;2022-12-24T09:06:53;22.77;;;5.20;;
12910;SDS011;6523;49.758;6.120;2022-12-24T09:09:19;26.93;;;5.80;;
12910;SDS011;6523;49.758;6.120;2022-12-24T09:11:44;20.33;;;5.57;;
12910;SDS011;6523;49.758;6.120;2022-12-24T09:14:10;25.67;;;4.50;;
12910;SDS011;6523;49.758;6.120;2022-12-24T09:16:36;22.67;;;4.70;;
12910;SDS011;6523;49.758;6.120;2022-12-24T09:19:01;24.93;;;5.03;;
12910;SDS011;6523;49.758;6.120;2022-12-24T09:21:27;22.43;;;4.67;;
12910;SDS011;6523;49.758;6.120;2022-12-24T09:23:53;25.40;;;5.87;;
12910;SDS011;6523;49.758;6.120;2022-12-24T09:26:20;28.70;;;5.80;;
12910;SDS011;6523;49.758;6.120;2022-12-24T09:28:47;25.50;;;5.37;;
12910;SDS011;6523;49.758;6.120;2022-12-24T09:31:13;22.13;;;5.53;;
12910;SDS011;6523;49.758;6.120;2022-12-24T09:33:40;25.17;;;5.27;;
12910;SDS011;6523;49.758;6.120;2022-12-24T09:36:06;20.10;;;4.80;;
12910;SDS011;6523;49.758;6.120;2022-12-24T09:38:33;23.50;;;4.93;;
12910;SDS011;6523;49.758;6.120;2022-12-24T09:40:59;17.40;;;5.43;;
12910;SDS011;6523;49.758;6.120;2022-12-24T09:43:27;19.17;;;5.30;;
12910;SDS011;6523;49.758;6.120;2022-12-24T09:48:39;28.00;;;5.33;;
12910;SDS011;6523;49.758;6.120;2022-12-24T09:51:10;16.07;;;4.70;;
12910;SDS011;6523;49.758;6.120;2022-12-24T09:53:47;24.77;;;5.00;;
12910;SDS011;6523;49.758;6.120;2022-12-24T09:56:19;23.33;;;5.47;;
12910;SDS011;6523;49.758;6.120;2022-12-24T09:58:53;23.17;;;5.57;;
12910;SDS011;6523;49.758;6.120;2022-12-24T10:01:24;24.57;;;5.30;;
12910;SDS011;6523;49.758;6.120;2022-12-24T10:15:45;20.97;;;4.73;;
12910;SDS011;6523;49.758;6.120;2022-12-24T10:18:26;20.37;;;4.10;;
12910;SDS011;6523;49.758;6.120;2022-12-24T10:22:06;22.63;;;4.63;;
12910;SDS011;6523;49.758;6.120;2022-12-24T10:24:21;21.63;;;5.53;;
12910;SDS011;6523;49.758;6.120;2022-12-24T10:29:24;21.93;;;4.77;;
12910;SDS011;6523;49.758;6.120;2022-12-24T10:34:48;16.37;;;4.03;;
12910;SDS011;6523;49.758;6.120;2022-12-24T10:37:21;17.63;;;4.93;;
12910;SDS011;6523;49.758;6.120;2022-12-24T10:39:48;19.87;;;4.33;;
12910;SDS011;6523;49.758;6.120;2022-12-24T10:42:14;15.57;;;4.60;;
12910;SDS011;6523;49.758;6.120;2022-12-24T10:44:41;21.37;;;4.47;;
12910;SDS011;6523;49.758;6.120;2022-12-24T10:47:11;12.23;;;3.77;;
12910;SDS011;6523;49.758;6.120;2022-12-24T10:49:45;16.70;;;4.40;;
12910;SDS011;6523;49.758;6.120;2022-12-24T10:52:35;23.30;;;4.03;;
12910;SDS011;6523;49.758;6.120;2022-12-24T10:57:41;20.73;;;4.80;;
12910;SDS011;6523;49.758;6.120;2022-12-24T11:00:22;14.33;;;3.77;;
12910;SDS011;6523;49.758;6.120;2022-12-24T11:02:49;14.77;;;4.50;;
12910;SDS011;6523;49.758;6.120;2022-12-24T11:05:59;15.80;;;3.90;;
12910;SDS011;6523;49.758;6.120;2022-12-24T11:08:26;17.23;;;3.87;;
12910;SDS011;6523;49.758;6.120;2022-12-24T11:10:53;20.10;;;4.30;;
12910;SDS011;6523;49.758;6.120;2022-12-24T11:13:25;14.27;;;3.23;;
12910;SDS011;6523;49.758;6.120;2022-12-24T11:16:03;15.40;;;3.60;;
12910;SDS011;6523;49.758;6.120;2022-12-24T11:18:43;14.10;;;3.30;;
12910;SDS011;6523;49.758;6.120;2022-12-24T11:21:11;11.83;;;4.00;;
12910;SDS011;6523;49.758;6.120;2022-12-24T11:23:48;14.47;;;3.63;;
12910;SDS011;6523;49.758;6.120;2022-12-24T11:26:19;17.00;;;3.23;;
12910;SDS011;6523;49.758;6.120;2022-12-24T11:29:02;17.30;;;4.00;;
12910;SDS011;6523;49.758;6.120;2022-12-24T11:31:30;16.87;;;3.83;;
12910;SDS011;6523;49.758;6.120;2022-12-24T11:33:59;17.70;;;3.53;;
12910;SDS011;6523;49.758;6.120;2022-12-24T11:36:25;11.17;;;3.27;;
12910;SDS011;6523;49.758;6.120;2022-12-24T11:38:54;14.63;;;3.53;;
12910;SDS011;6523;49.758;6.120;2022-12-24T11:41:22;10.67;;;3.57;;
12910;SDS011;6523;49.758;6.120;2022-12-24T11:43:50;17.77;;;3.90;;
12910;SDS011;6523;49.758;6.120;2022-12-24T11:46:39;14.13;;;4.10;;
12910;SDS011;6523;49.758;6.120;2022-12-24T11:51:41;11.17;;;3.23;;
12910;SDS011;6523;49.758;6.120;2022-12-24T11:54:31;15.73;;;3.43;;
12910;SDS011;6523;49.758;6.120;2022-12-24T11:57:20;13.73;;;3.57;;
12910;SDS011;6523;49.758;6.120;2022-12-24T11:59:49;11.50;;;3.30;;
12910;SDS011;6523;49.758;6.120;2022-12-24T12:04:49;16.57;;;3.57;;
12910;SDS011;6523;49.758;6.120;2022-12-24T12:07:21;16.63;;;4.67;;
12910;SDS011;6523;49.758;6.120;2022-12-24T12:09:56;12.47;;;3.83;;
12910;SDS011;6523;49.758;6.120;2022-12-24T12:12:30;17.53;;;4.50;;
12910;SDS011;6523;49.758;6.120;2022-12-24T12:14:59;16.97;;;4.60;;
12910;SDS011;6523;49.758;6.120;2022-12-24T12:25:19;16.43;;;4.47;;
12910;SDS011;6523;49.758;6.120;2022-12-24T12:27:48;19.27;;;4.30;;
12910;SDS011;6523;49.758;6.120;2022-12-24T12:30:17;22.30;;;4.63;;
12910;SDS011;6523;49.758;6.120;2022-12-24T12:35:34;19.17;;;4.77;;
12910;SDS011;6523;49.758;6.120;2022-12-24T12:38:05;18.03;;;4.50;;
12910;SDS011;6523;49.758;6.120;2022-12-24T12:40:42;14.60;;;4.17;;
12910;SDS011;6523;49.758;6.120;2022-12-24T12:49:10;14.83;;;3.47;;
12910;SDS011;6523;49.758;6.120;2022-12-24T12:51:51;7.57;;;3.00;;
12910;SDS011;6523;49.758;6.120;2022-12-24T12:57:27;8.97;;;2.23;;
12910;SDS011;6523;49.758;6.120;2022-12-24T13:00:00;10.93;;;3.07;;
12910;SDS011;6523;49.758;6.120;2022-12-24T13:10:34;10.67;;;3.03;;
12910;SDS011;6523;49.758;6.120;2022-12-24T13:19:23;12.23;;;3.43;;
12910;SDS011;6523;49.758;6.120;2022-12-24T13:21:53;18.03;;;3.57;;
12910;SDS011;6523;49.758;6.120;2022-12-24T13:24:20;14.43;;;3.73;;
12910;SDS011;6523;49.758;6.120;2022-12-24T13:26:59;15.47;;;3.50;;
12910;SDS011;6523;49.758;6.120;2022-12-24T13:34:44;11.50;;;3.37;;
12910;SDS011;6523;49.758;6.120;2022-12-24T13:37:40;18.47;;;4.77;;
12910;SDS011;6523;49.758;6.120;2022-12-24T13:52:59;17.03;;;3.60;;
12910;SDS011;6523;49.758;6.120;2022-12-24T13:55:24;12.40;;;3.80;;
12910;SDS011;6523;49.758;6.120;2022-12-24T14:00:29;15.50;;;3.67;;
12910;SDS011;6523;49.758;6.120;2022-12-24T14:02:59;19.53;;;4.20;;
12910;SDS011;6523;49.758;6.120;2022-12-24T14:05:47;10.60;;;4.23;;
12910;SDS011;6523;49.758;6.120;2022-12-24T14:11:05;14.37;;;3.93;;
12910;SDS011;6523;49.758;6.120;2022-12-24T14:16:20;16.93;;;4.10;;
12910;SDS011;6523;49.758;6.120;2022-12-24T14:19:03;11.43;;;3.17;;
12910;SDS011;6523;49.758;6.120;2022-12-24T14:24:22;15.13;;;3.30;;
12910;SDS011;6523;49.758;6.120;2022-12-24T14:26:52;14.43;;;4.50;;
12910;SDS011;6523;49.758;6.120;2022-12-24T14:29:25;16.03;;;3.80;;
12910;SDS011;6523;49.758;6.120;2022-12-24T14:31:57;12.87;;;3.70;;
12910;SDS011;6523;49.758;6.120;2022-12-24T14:34:24;9.00;;;3.13;;
12910;SDS011;6523;49.758;6.120;2022-12-24T14:36:52;17.53;;;4.03;;
12910;SDS011;6523;49.758;6.120;2022-12-24T14:39:21;14.57;;;3.87;;
12910;SDS011;6523;49.758;6.120;2022-12-24T14:50:27;16.97;;;4.67;;
12910;SDS011;6523;49.758;6.120;2022-12-24T14:54:09;14.03;;;4.07;;
12910;SDS011;6523;49.758;6.120;2022-12-24T14:56:12;15.03;;;3.63;;
12910;SDS011;6523;49.758;6.120;2022-12-24T14:58:39;18.83;;;4.50;;
12910;SDS011;6523;49.758;6.120;2022-12-24T15:04:13;18.43;;;4.23;;
12910;SDS011;6523;49.758;6.120;2022-12-24T15:09:18;19.13;;;4.27;;
12910;SDS011;6523;49.758;6.120;2022-12-24T15:11:49;18.57;;;4.83;;
12910;SDS011;6523;49.758;6.120;2022-12-24T15:14:17;17.20;;;4.70;;
12910;SDS011;6523;49.758;6.120;2022-12-24T15:16:50;19.03;;;4.60;;
12910;SDS011;6523;49.758;6.120;2022-12-24T15:19:23;12.93;;;3.93;;
12910;SDS011;6523;49.758;6.120;2022-12-24T15:21:55;17.67;;;4.33;;
12910;SDS011;6523;49.758;6.120;2022-12-24T15:24:25;15.73;;;3.90;;
12910;SDS011;6523;49.758;6.120;2022-12-24T15:26:53;19.30;;;3.90;;
12910;SDS011;6523;49.758;6.120;2022-12-24T15:29:26;18.33;;;4.03;;
12910;SDS011;6523;49.758;6.120;2022-12-24T15:32:00;18.97;;;4.10;;
12910;SDS011;6523;49.758;6.120;2022-12-24T15:34:34;20.40;;;4.23;;
12910;SDS011;6523;49.758;6.120;2022-12-24T15:37:18;19.03;;;4.77;;
12910;SDS011;6523;49.758;6.120;2022-12-24T15:42:46;16.33;;;3.93;;
12910;SDS011;6523;49.758;6.120;2022-12-24T15:45:13;14.40;;;3.87;;
12910;SDS011;6523;49.758;6.120;2022-12-24T15:48:00;13.67;;;4.47;;
12910;SDS011;6523;49.758;6.120;2022-12-24T15:50:34;17.20;;;4.30;;
12910;SDS011;6523;49.758;6.120;2022-12-24T15:53:14;15.33;;;4.67;;
12910;SDS011;6523;49.758;6.120;2022-12-24T15:55:59;13.20;;;3.90;;
12910;SDS011;6523;49.758;6.120;2022-12-24T15:58:30;16.43;;;3.90;;
12910;SDS011;6523;49.758;6.120;2022-12-24T16:01:05;19.90;;;3.70;;
12910;SDS011;6523;49.758;6.120;2022-12-24T16:06:17;15.97;;;4.70;;
12910;SDS011;6523;49.758;6.120;2022-12-24T16:08:44;11.70;;;4.13;;
12910;SDS011;6523;49.758;6.120;2022-12-24T16:11:20;14.63;;;4.10;;
12910;SDS011;6523;49.758;6.120;2022-12-24T16:16:34;16.03;;;4.33;;
12910;SDS011;6523;49.758;6.120;2022-12-24T16:19:04;14.70;;;4.00;;
12910;SDS011;6523;49.758;6.120;2022-12-24T16:21:39;15.47;;;4.40;;
12910;SDS011;6523;49.758;6.120;2022-12-24T16:24:09;15.90;;;6.30;;
12910;SDS011;6523;49.758;6.120;2022-12-24T16:26:38;20.77;;;6.83;;
12910;SDS011;6523;49.758;6.120;2022-12-24T16:29:04;15.53;;;5.10;;
12910;SDS011;6523;49.758;6.120;2022-12-24T16:31:36;19.83;;;7.50;;
12910;SDS011;6523;49.758;6.120;2022-12-24T16:34:09;17.93;;;6.37;;
12910;SDS011;6523;49.758;6.120;2022-12-24T16:36:41;18.57;;;5.90;;
12910;SDS011;6523;49.758;6.120;2022-12-24T16:39:15;16.13;;;5.23;;
12910;SDS011;6523;49.758;6.120;2022-12-24T16:41:53;16.20;;;4.70;;
12910;SDS011;6523;49.758;6.120;2022-12-24T16:44:38;15.80;;;4.30;;
12910;SDS011;6523;49.758;6.120;2022-12-24T16:47:05;20.30;;;5.00;;
12910;SDS011;6523;49.758;6.120;2022-12-24T16:49:35;13.93;;;4.57;;
12910;SDS011;6523;49.758;6.120;2022-12-24T16:52:02;13.40;;;4.70;;
12910;SDS011;6523;49.758;6.120;2022-12-24T16:54:32;18.67;;;4.97;;
12910;SDS011;6523;49.758;6.120;2022-12-24T16:56:57;13.87;;;4.20;;
12910;SDS011;6523;49.758;6.120;2022-12-24T16:59:23;21.83;;;5.67;;
12910;SDS011;6523;49.758;6.120;2022-12-24T17:01:49;18.10;;;4.87;;
12910;SDS011;6523;49.758;6.120;2022-12-24T17:04:15;18.17;;;5.10;;
12910;SDS011;6523;49.758;6.120;2022-12-24T17:06:42;17.93;;;4.60;;
12910;SDS011;6523;49.758;6.120;2022-12-24T17:09:09;17.10;;;4.80;;
12910;SDS011;6523;49.758;6.120;2022-12-24T17:11:36;17.57;;;5.17;;
12910;SDS011;6523;49.758;6.120;2022-12-24T17:14:02;18.33;;;4.60;;